sensor_id;sensor_type;location;lat;lon;timestamp;P1;durP1;ratioP1;P2;durP2;ratioP2
6215;SDS011;3141;49.234;9.326;2023-12-14T00:00:41;11.73;;;7.57;;
6215;SDS011;3141;49.234;9.326;2023-12-14T00:01:23;9.97;;;8.43;;
6215;SDS011;3141;49.234;9.326;2023-12-14T00:02:06;10.40;;;8.23;;
6215;SDS011;3141;49.234;9.326;2023-12-14T00:02:48;11.37;;;8.80;;
6215;SDS011;3141;49.234;9.326;2023-12-14T00:03:31;10.10;;;8.07;;
6215;SDS011;3141;49.234;9.326;2023-12-14T00:04:13;12.43;;;8.83;;
6215;SDS011;3141;49.234;9.326;2023-12-14T00:04:55;13.03;;;9.07;;
6215;SDS011;3141;49.234;9.326;2023-12-14T00:05:38;11.80;;;8.70;;
6215;SDS011;3141;49.234;9.326;2023-12-14T00:06:20;11.37;;;8.57;;
6215;SDS011;3141;49.234;9.326;2023-12-14T00:07:02;11.67;;;8.17;;
6215;SDS011;3141;49.234;9.326;2023-12-14T00:07:46;12.52;;;8.88;;
6215;SDS011;3141;49.234;9.326;2023-12-14T00:08:28;10.57;;;8.60;;
6215;SDS011;3141;49.234;9.326;2023-12-14T00:09:11;11.47;;;8.40;;
6215;SDS011;3141;49.234;9.326;2023-12-14T00:09:54;10.05;;;8.23;;
6215;SDS011;3141;49.234;9.326;2023-12-14T00:10:36;9.50;;;8.33;;
6215;SDS011;3141;49.234;9.326;2023-12-14T00:11:19;9.37;;;7.17;;
6215;SDS011;3141;49.234;9.326;2023-12-14T00:12:01;13.33;;;8.10;;
6215;SDS011;3141;49.234;9.326;2023-12-14T00:12:44;10.73;;;7.30;;
6215;SDS011;3141;49.234;9.326;2023-12-14T00:13:26;7.80;;;7.00;;
6215;SDS011;3141;49.234;9.326;2023-12-14T00:14:09;9.03;;;7.53;;
6215;SDS011;3141;49.234;9.326;2023-12-14T00:14:51;8.13;;;6.63;;
6215;SDS011;3141;49.234;9.326;2023-12-14T00:15:35;8.98;;;7.50;;
6215;SDS011;3141;49.234;9.326;2023-12-14T00:16:17;11.40;;;7.87;;
6215;SDS011;3141;49.234;9.326;2023-12-14T00:17:00;11.77;;;7.43;;
6215;SDS011;3141;49.234;9.326;2023-12-14T00:17:42;10.47;;;7.20;;
6215;SDS011;3141;49.234;9.326;2023-12-14T00:18:25;10.93;;;7.10;;
6215;SDS011;3141;49.234;9.326;2023-12-14T00:19:07;15.70;;;8.53;;
6215;SDS011;3141;49.234;9.326;2023-12-14T00:19:50;11.20;;;8.20;;
6215;SDS011;3141;49.234;9.326;2023-12-14T00:20:32;12.40;;;7.57;;
6215;SDS011;3141;49.234;9.326;2023-12-14T00:21:15;10.30;;;6.97;;
6215;SDS011;3141;49.234;9.326;2023-12-14T00:21:57;14.03;;;7.37;;
6215;SDS011;3141;49.234;9.326;2023-12-14T00:22:40;14.23;;;8.13;;
6215;SDS011;3141;49.234;9.326;2023-12-14T00:23:22;11.27;;;8.30;;
6215;SDS011;3141;49.234;9.326;2023-12-14T00:24:06;10.80;;;7.38;;
6215;SDS011;3141;49.234;9.326;2023-12-14T00:24:48;13.52;;;8.15;;
6215;SDS011;3141;49.234;9.326;2023-12-14T00:25:31;14.00;;;7.33;;
6215;SDS011;3141;49.234;9.326;2023-12-14T00:26:14;13.97;;;7.60;;
6215;SDS011;3141;49.234;9.326;2023-12-14T00:26:57;14.50;;;7.75;;
6215;SDS011;3141;49.234;9.326;2023-12-14T00:27:39;10.77;;;7.40;;
6215;SDS011;3141;49.234;9.326;2023-12-14T00:28:21;11.80;;;8.40;;
6215;SDS011;3141;49.234;9.326;2023-12-14T00:29:04;16.17;;;7.93;;
6215;SDS011;3141;49.234;9.326;2023-12-14T00:29:47;9.30;;;7.67;;
6215;SDS011;3141;49.234;9.326;2023-12-14T00:30:29;12.17;;;8.03;;
6215;SDS011;3141;49.234;9.326;2023-12-14T00:31:11;11.40;;;7.33;;
6215;SDS011;3141;49.234;9.326;2023-12-14T00:31:54;13.60;;;8.18;;
6215;SDS011;3141;49.234;9.326;2023-12-14T00:32:37;11.57;;;8.13;;
6215;SDS011;3141;49.234;9.326;2023-12-14T00:33:19;12.70;;;7.60;;
6215;SDS011;3141;49.234;9.326;2023-12-14T00:34:01;8.80;;;7.90;;
6215;SDS011;3141;49.234;9.326;2023-12-14T00:34:45;9.20;;;8.30;;
6215;SDS011;3141;49.234;9.326;2023-12-14T00:35:27;13.23;;;8.20;;
6215;SDS011;3141;49.234;9.326;2023-12-14T00:36:10;11.63;;;8.93;;
6215;SDS011;3141;49.234;9.326;2023-12-14T00:36:59;13.25;;;8.10;;
6215;SDS011;3141;49.234;9.326;2023-12-14T00:37:41;10.47;;;8.00;;
6215;SDS011;3141;49.234;9.326;2023-12-14T00:38:24;10.33;;;7.47;;
6215;SDS011;3141;49.234;9.326;2023-12-14T00:39:06;11.43;;;7.47;;
6215;SDS011;3141;49.234;9.326;2023-12-14T00:39:48;9.67;;;7.53;;
6215;SDS011;3141;49.234;9.326;2023-12-14T00:40:31;8.10;;;7.10;;
6215;SDS011;3141;49.234;9.326;2023-12-14T00:41:13;7.47;;;6.60;;
6215;SDS011;3141;49.234;9.326;2023-12-14T00:41:55;8.67;;;7.33;;
6215;SDS011;3141;49.234;9.326;2023-12-14T00:42:38;12.37;;;8.33;;
6215;SDS011;3141;49.234;9.326;2023-12-14T00:43:20;8.87;;;7.97;;
6215;SDS011;3141;49.234;9.326;2023-12-14T00:44:02;11.20;;;8.50;;
6215;SDS011;3141;49.234;9.326;2023-12-14T00:44:45;9.57;;;8.23;;
6215;SDS011;3141;49.234;9.326;2023-12-14T00:45:27;10.33;;;7.70;;
6215;SDS011;3141;49.234;9.326;2023-12-14T00:46:09;14.77;;;8.90;;
6215;SDS011;3141;49.234;9.326;2023-12-14T00:46:53;11.20;;;8.30;;
6215;SDS011;3141;49.234;9.326;2023-12-14T00:47:35;12.00;;;8.33;;
6215;SDS011;3141;49.234;9.326;2023-12-14T00:48:18;18.13;;;8.10;;
6215;SDS011;3141;49.234;9.326;2023-12-14T00:49:00;10.50;;;7.77;;
6215;SDS011;3141;49.234;9.326;2023-12-14T00:49:44;10.20;;;8.68;;
6215;SDS011;3141;49.234;9.326;2023-12-14T00:50:26;10.80;;;8.43;;
6215;SDS011;3141;49.234;9.326;2023-12-14T00:51:08;12.07;;;8.20;;
6215;SDS011;3141;49.234;9.326;2023-12-14T00:51:51;12.93;;;8.97;;
6215;SDS011;3141;49.234;9.326;2023-12-14T00:52:33;11.90;;;8.80;;
6215;SDS011;3141;49.234;9.326;2023-12-14T00:53:15;14.63;;;9.37;;
6215;SDS011;3141;49.234;9.326;2023-12-14T00:53:57;14.17;;;8.77;;
6215;SDS011;3141;49.234;9.326;2023-12-14T00:54:40;10.27;;;8.13;;
6215;SDS011;3141;49.234;9.326;2023-12-14T00:55:22;12.57;;;8.70;;
6215;SDS011;3141;49.234;9.326;2023-12-14T00:56:06;9.73;;;8.03;;
6215;SDS011;3141;49.234;9.326;2023-12-14T00:56:50;12.35;;;8.70;;
6215;SDS011;3141;49.234;9.326;2023-12-14T00:57:32;10.23;;;7.87;;
6215;SDS011;3141;49.234;9.326;2023-12-14T00:58:14;10.57;;;8.43;;
6215;SDS011;3141;49.234;9.326;2023-12-14T00:58:57;10.87;;;9.37;;
6215;SDS011;3141;49.234;9.326;2023-12-14T00:59:39;12.60;;;9.47;;
6215;SDS011;3141;49.234;9.326;2023-12-14T01:00:22;12.13;;;9.07;;
6215;SDS011;3141;49.234;9.326;2023-12-14T01:01:05;12.50;;;9.63;;
6215;SDS011;3141;49.234;9.326;2023-12-14T01:01:47;12.13;;;8.63;;
6215;SDS011;3141;49.234;9.326;2023-12-14T01:02:29;12.43;;;9.13;;
6215;SDS011;3141;49.234;9.326;2023-12-14T01:03:12;11.03;;;8.30;;
6215;SDS011;3141;49.234;9.326;2023-12-14T01:03:54;11.83;;;9.50;;
6215;SDS011;3141;49.234;9.326;2023-12-14T01:04:37;14.37;;;8.77;;
6215;SDS011;3141;49.234;9.326;2023-12-14T01:05:19;10.60;;;9.13;;
6215;SDS011;3141;49.234;9.326;2023-12-14T01:06:02;10.97;;;8.67;;
6215;SDS011;3141;49.234;9.326;2023-12-14T01:06:44;13.47;;;9.13;;
6215;SDS011;3141;49.234;9.326;2023-12-14T01:07:26;11.20;;;8.77;;
6215;SDS011;3141;49.234;9.326;2023-12-14T01:08:08;12.80;;;9.43;;
6215;SDS011;3141;49.234;9.326;2023-12-14T01:08:51;13.17;;;9.00;;
6215;SDS011;3141;49.234;9.326;2023-12-14T01:09:33;16.63;;;8.97;;
6215;SDS011;3141;49.234;9.326;2023-12-14T01:10:15;10.77;;;8.70;;
6215;SDS011;3141;49.234;9.326;2023-12-14T01:10:58;12.67;;;8.87;;
6215;SDS011;3141;49.234;9.326;2023-12-14T01:11:40;17.87;;;9.97;;
6215;SDS011;3141;49.234;9.326;2023-12-14T01:12:22;15.70;;;9.17;;
6215;SDS011;3141;49.234;9.326;2023-12-14T01:13:05;12.50;;;9.23;;
6215;SDS011;3141;49.234;9.326;2023-12-14T01:13:47;11.53;;;9.23;;
6215;SDS011;3141;49.234;9.326;2023-12-14T01:14:29;14.50;;;9.67;;
6215;SDS011;3141;49.234;9.326;2023-12-14T01:15:12;16.50;;;9.63;;
6215;SDS011;3141;49.234;9.326;2023-12-14T01:15:54;13.57;;;9.47;;
6215;SDS011;3141;49.234;9.326;2023-12-14T01:16:36;14.23;;;9.80;;
6215;SDS011;3141;49.234;9.326;2023-12-14T01:17:19;11.63;;;9.83;;
6215;SDS011;3141;49.234;9.326;2023-12-14T01:18:01;12.20;;;9.60;;
6215;SDS011;3141;49.234;9.326;2023-12-14T01:18:43;14.83;;;10.00;;
6215;SDS011;3141;49.234;9.326;2023-12-14T01:19:25;12.33;;;9.37;;
6215;SDS011;3141;49.234;9.326;2023-12-14T01:20:08;12.67;;;10.27;;
6215;SDS011;3141;49.234;9.326;2023-12-14T01:20:51;11.43;;;10.00;;
6215;SDS011;3141;49.234;9.326;2023-12-14T01:21:33;14.23;;;9.60;;
6215;SDS011;3141;49.234;9.326;2023-12-14T01:22:15;11.63;;;9.30;;
6215;SDS011;3141;49.234;9.326;2023-12-14T01:22:58;13.73;;;9.80;;
6215;SDS011;3141;49.234;9.326;2023-12-14T01:23:40;14.77;;;10.03;;
6215;SDS011;3141;49.234;9.326;2023-12-14T01:24:22;11.30;;;9.60;;
6215;SDS011;3141;49.234;9.326;2023-12-14T01:25:05;16.27;;;10.27;;
6215;SDS011;3141;49.234;9.326;2023-12-14T01:25:47;12.80;;;10.30;;
6215;SDS011;3141;49.234;9.326;2023-12-14T01:26:30;15.13;;;10.20;;
6215;SDS011;3141;49.234;9.326;2023-12-14T01:27:12;12.03;;;9.77;;
6215;SDS011;3141;49.234;9.326;2023-12-14T01:27:55;14.18;;;10.25;;
6215;SDS011;3141;49.234;9.326;2023-12-14T01:28:38;12.50;;;9.77;;
6215;SDS011;3141;49.234;9.326;2023-12-14T01:29:20;16.87;;;9.87;;
6215;SDS011;3141;49.234;9.326;2023-12-14T01:30:02;15.60;;;9.40;;
6215;SDS011;3141;49.234;9.326;2023-12-14T01:30:45;13.47;;;9.50;;
6215;SDS011;3141;49.234;9.326;2023-12-14T01:31:27;12.73;;;9.13;;
6215;SDS011;3141;49.234;9.326;2023-12-14T01:32:10;12.33;;;10.00;;
6215;SDS011;3141;49.234;9.326;2023-12-14T01:32:52;15.73;;;10.80;;
6215;SDS011;3141;49.234;9.326;2023-12-14T01:33:34;13.90;;;10.33;;
6215;SDS011;3141;49.234;9.326;2023-12-14T01:34:16;12.90;;;10.50;;
6215;SDS011;3141;49.234;9.326;2023-12-14T01:34:59;17.63;;;10.60;;
6215;SDS011;3141;49.234;9.326;2023-12-14T01:35:41;16.43;;;9.93;;
6215;SDS011;3141;49.234;9.326;2023-12-14T01:36:24;13.23;;;9.57;;
6215;SDS011;3141;49.234;9.326;2023-12-14T01:37:08;14.65;;;9.77;;
6215;SDS011;3141;49.234;9.326;2023-12-14T01:37:50;16.33;;;9.90;;
6215;SDS011;3141;49.234;9.326;2023-12-14T01:38:32;11.00;;;9.20;;
6215;SDS011;3141;49.234;9.326;2023-12-14T01:39:14;12.97;;;9.73;;
6215;SDS011;3141;49.234;9.326;2023-12-14T01:39:57;13.70;;;10.17;;
6215;SDS011;3141;49.234;9.326;2023-12-14T01:40:39;16.37;;;10.40;;
6215;SDS011;3141;49.234;9.326;2023-12-14T01:41:21;16.33;;;10.77;;
6215;SDS011;3141;49.234;9.326;2023-12-14T01:42:04;16.87;;;10.40;;
6215;SDS011;3141;49.234;9.326;2023-12-14T01:42:46;15.90;;;10.33;;
6215;SDS011;3141;49.234;9.326;2023-12-14T01:43:28;14.83;;;10.57;;
6215;SDS011;3141;49.234;9.326;2023-12-14T01:44:11;15.87;;;10.43;;
6215;SDS011;3141;49.234;9.326;2023-12-14T01:44:53;12.40;;;10.33;;
6215;SDS011;3141;49.234;9.326;2023-12-14T01:45:36;12.63;;;9.27;;
6215;SDS011;3141;49.234;9.326;2023-12-14T01:46:19;15.25;;;10.55;;
6215;SDS011;3141;49.234;9.326;2023-12-14T01:47:01;15.20;;;11.27;;
6215;SDS011;3141;49.234;9.326;2023-12-14T01:47:44;15.67;;;10.77;;
6215;SDS011;3141;49.234;9.326;2023-12-14T01:48:26;14.47;;;10.27;;
6215;SDS011;3141;49.234;9.326;2023-12-14T01:49:09;15.10;;;11.43;;
6215;SDS011;3141;49.234;9.326;2023-12-14T01:49:51;13.33;;;10.00;;
6215;SDS011;3141;49.234;9.326;2023-12-14T01:50:34;14.83;;;10.57;;
6215;SDS011;3141;49.234;9.326;2023-12-14T01:51:16;17.27;;;12.00;;
6215;SDS011;3141;49.234;9.326;2023-12-14T01:51:58;17.17;;;10.77;;
6215;SDS011;3141;49.234;9.326;2023-12-14T01:52:40;22.03;;;10.77;;
6215;SDS011;3141;49.234;9.326;2023-12-14T01:53:23;16.80;;;11.13;;
6215;SDS011;3141;49.234;9.326;2023-12-14T01:54:05;14.77;;;9.87;;
6215;SDS011;3141;49.234;9.326;2023-12-14T01:54:47;16.33;;;10.43;;
6215;SDS011;3141;49.234;9.326;2023-12-14T01:55:30;19.50;;;11.43;;
6215;SDS011;3141;49.234;9.326;2023-12-14T01:56:12;14.63;;;10.83;;
6215;SDS011;3141;49.234;9.326;2023-12-14T01:56:54;14.70;;;10.60;;
6215;SDS011;3141;49.234;9.326;2023-12-14T01:57:37;15.80;;;10.70;;
6215;SDS011;3141;49.234;9.326;2023-12-14T01:58:19;18.93;;;11.13;;
6215;SDS011;3141;49.234;9.326;2023-12-14T01:59:02;16.08;;;10.85;;
6215;SDS011;3141;49.234;9.326;2023-12-14T01:59:45;19.33;;;10.20;;
6215;SDS011;3141;49.234;9.326;2023-12-14T02:00:46;17.37;;;11.00;;
6215;SDS011;3141;49.234;9.326;2023-12-14T02:01:38;16.02;;;10.45;;
6215;SDS011;3141;49.234;9.326;2023-12-14T02:02:23;14.10;;;10.18;;
6215;SDS011;3141;49.234;9.326;2023-12-14T02:03:06;17.00;;;10.73;;
6215;SDS011;3141;49.234;9.326;2023-12-14T02:03:49;18.27;;;11.27;;
6215;SDS011;3141;49.234;9.326;2023-12-14T02:04:34;16.13;;;10.15;;
6215;SDS011;3141;49.234;9.326;2023-12-14T02:05:16;21.97;;;11.80;;
6215;SDS011;3141;49.234;9.326;2023-12-14T02:05:59;16.97;;;10.30;;
6215;SDS011;3141;49.234;9.326;2023-12-14T02:06:42;18.50;;;12.35;;
6215;SDS011;3141;49.234;9.326;2023-12-14T02:07:25;16.87;;;11.23;;
6215;SDS011;3141;49.234;9.326;2023-12-14T02:08:07;18.23;;;10.93;;
6215;SDS011;3141;49.234;9.326;2023-12-14T02:08:50;17.02;;;10.77;;
6215;SDS011;3141;49.234;9.326;2023-12-14T02:09:32;19.60;;;10.60;;
6215;SDS011;3141;49.234;9.326;2023-12-14T02:10:15;15.93;;;11.03;;
6215;SDS011;3141;49.234;9.326;2023-12-14T02:10:57;17.37;;;11.43;;
6215;SDS011;3141;49.234;9.326;2023-12-14T02:11:39;14.00;;;10.70;;
6215;SDS011;3141;49.234;9.326;2023-12-14T02:12:22;14.77;;;10.70;;
6215;SDS011;3141;49.234;9.326;2023-12-14T02:13:04;15.43;;;10.87;;
6215;SDS011;3141;49.234;9.326;2023-12-14T02:13:46;14.90;;;10.10;;
6215;SDS011;3141;49.234;9.326;2023-12-14T02:14:29;14.70;;;10.23;;
6215;SDS011;3141;49.234;9.326;2023-12-14T02:15:11;13.67;;;10.17;;
6215;SDS011;3141;49.234;9.326;2023-12-14T02:15:53;16.03;;;10.63;;
6215;SDS011;3141;49.234;9.326;2023-12-14T02:16:36;15.73;;;10.67;;
6215;SDS011;3141;49.234;9.326;2023-12-14T02:17:20;17.58;;;11.50;;
6215;SDS011;3141;49.234;9.326;2023-12-14T02:18:02;17.40;;;10.43;;
6215;SDS011;3141;49.234;9.326;2023-12-14T02:18:46;18.80;;;11.38;;
6215;SDS011;3141;49.234;9.326;2023-12-14T02:19:28;15.17;;;10.40;;
6215;SDS011;3141;49.234;9.326;2023-12-14T02:20:10;16.93;;;10.60;;
6215;SDS011;3141;49.234;9.326;2023-12-14T02:20:53;15.23;;;10.43;;
6215;SDS011;3141;49.234;9.326;2023-12-14T02:21:35;16.37;;;10.40;;
6215;SDS011;3141;49.234;9.326;2023-12-14T02:22:17;16.97;;;11.20;;
6215;SDS011;3141;49.234;9.326;2023-12-14T02:23:00;14.83;;;10.00;;
6215;SDS011;3141;49.234;9.326;2023-12-14T02:23:44;15.07;;;10.90;;
6215;SDS011;3141;49.234;9.326;2023-12-14T02:24:29;15.52;;;11.32;;
6215;SDS011;3141;49.234;9.326;2023-12-14T02:25:12;22.27;;;11.20;;
6215;SDS011;3141;49.234;9.326;2023-12-14T02:25:54;14.83;;;11.50;;
6215;SDS011;3141;49.234;9.326;2023-12-14T02:26:36;20.97;;;11.07;;
6215;SDS011;3141;49.234;9.326;2023-12-14T02:27:19;17.57;;;11.43;;
6215;SDS011;3141;49.234;9.326;2023-12-14T02:28:01;19.17;;;10.93;;
6215;SDS011;3141;49.234;9.326;2023-12-14T02:28:43;18.13;;;11.60;;
6215;SDS011;3141;49.234;9.326;2023-12-14T02:29:26;20.43;;;11.57;;
6215;SDS011;3141;49.234;9.326;2023-12-14T02:30:08;16.53;;;10.93;;
6215;SDS011;3141;49.234;9.326;2023-12-14T02:30:51;21.65;;;12.48;;
6215;SDS011;3141;49.234;9.326;2023-12-14T02:31:34;16.83;;;11.63;;
6215;SDS011;3141;49.234;9.326;2023-12-14T02:32:16;15.53;;;11.30;;
6215;SDS011;3141;49.234;9.326;2023-12-14T02:32:58;17.87;;;10.73;;
6215;SDS011;3141;49.234;9.326;2023-12-14T02:33:41;20.50;;;12.17;;
6215;SDS011;3141;49.234;9.326;2023-12-14T02:34:23;17.27;;;12.00;;
6215;SDS011;3141;49.234;9.326;2023-12-14T02:35:07;18.88;;;11.57;;
6215;SDS011;3141;49.234;9.326;2023-12-14T02:35:50;15.07;;;10.48;;
6215;SDS011;3141;49.234;9.326;2023-12-14T02:36:32;19.53;;;11.90;;
6215;SDS011;3141;49.234;9.326;2023-12-14T02:37:15;15.57;;;10.87;;
6215;SDS011;3141;49.234;9.326;2023-12-14T02:37:57;19.20;;;11.87;;
6215;SDS011;3141;49.234;9.326;2023-12-14T02:38:39;17.83;;;12.07;;
6215;SDS011;3141;49.234;9.326;2023-12-14T02:39:22;15.80;;;11.90;;
6215;SDS011;3141;49.234;9.326;2023-12-14T02:40:04;17.50;;;11.40;;
6215;SDS011;3141;49.234;9.326;2023-12-14T02:40:47;18.67;;;11.93;;
6215;SDS011;3141;49.234;9.326;2023-12-14T02:41:29;16.93;;;11.53;;
6215;SDS011;3141;49.234;9.326;2023-12-14T02:42:11;19.43;;;11.27;;
6215;SDS011;3141;49.234;9.326;2023-12-14T02:42:54;17.40;;;12.40;;
6215;SDS011;3141;49.234;9.326;2023-12-14T02:43:36;16.03;;;11.97;;
6215;SDS011;3141;49.234;9.326;2023-12-14T02:44:20;15.88;;;11.25;;
6215;SDS011;3141;49.234;9.326;2023-12-14T02:45:02;18.80;;;11.77;;
6215;SDS011;3141;49.234;9.326;2023-12-14T02:45:45;16.88;;;11.02;;
6215;SDS011;3141;49.234;9.326;2023-12-14T02:46:28;17.73;;;11.33;;
6215;SDS011;3141;49.234;9.326;2023-12-14T02:47:10;17.83;;;11.20;;
6215;SDS011;3141;49.234;9.326;2023-12-14T02:47:52;26.27;;;12.47;;
6215;SDS011;3141;49.234;9.326;2023-12-14T02:48:36;16.05;;;11.40;;
6215;SDS011;3141;49.234;9.326;2023-12-14T02:49:18;15.43;;;12.10;;
6215;SDS011;3141;49.234;9.326;2023-12-14T02:50:00;18.30;;;12.40;;
6215;SDS011;3141;49.234;9.326;2023-12-14T02:50:43;21.30;;;11.77;;
6215;SDS011;3141;49.234;9.326;2023-12-14T02:51:25;20.60;;;11.60;;
6215;SDS011;3141;49.234;9.326;2023-12-14T02:52:07;16.13;;;11.63;;
6215;SDS011;3141;49.234;9.326;2023-12-14T02:52:50;18.13;;;11.87;;
6215;SDS011;3141;49.234;9.326;2023-12-14T02:53:32;16.97;;;11.53;;
6215;SDS011;3141;49.234;9.326;2023-12-14T02:54:14;19.13;;;12.33;;
6215;SDS011;3141;49.234;9.326;2023-12-14T02:54:57;19.13;;;11.60;;
6215;SDS011;3141;49.234;9.326;2023-12-14T02:55:39;19.80;;;12.33;;
6215;SDS011;3141;49.234;9.326;2023-12-14T02:56:21;18.83;;;11.80;;
6215;SDS011;3141;49.234;9.326;2023-12-14T02:57:04;17.40;;;11.60;;
6215;SDS011;3141;49.234;9.326;2023-12-14T02:57:46;18.73;;;11.77;;
6215;SDS011;3141;49.234;9.326;2023-12-14T02:58:28;20.50;;;12.27;;
6215;SDS011;3141;49.234;9.326;2023-12-14T02:59:11;16.67;;;11.33;;
6215;SDS011;3141;49.234;9.326;2023-12-14T02:59:53;17.60;;;11.50;;
6215;SDS011;3141;49.234;9.326;2023-12-14T03:00:35;18.07;;;11.67;;
6215;SDS011;3141;49.234;9.326;2023-12-14T03:01:18;19.63;;;12.10;;
6215;SDS011;3141;49.234;9.326;2023-12-14T03:02:02;19.75;;;11.25;;
6215;SDS011;3141;49.234;9.326;2023-12-14T03:02:45;15.97;;;11.67;;
6215;SDS011;3141;49.234;9.326;2023-12-14T03:03:27;18.30;;;11.43;;
6215;SDS011;3141;49.234;9.326;2023-12-14T03:04:10;22.47;;;12.23;;
6215;SDS011;3141;49.234;9.326;2023-12-14T03:04:52;18.93;;;12.17;;
6215;SDS011;3141;49.234;9.326;2023-12-14T03:05:34;17.67;;;11.63;;
6215;SDS011;3141;49.234;9.326;2023-12-14T03:06:16;18.60;;;11.87;;
6215;SDS011;3141;49.234;9.326;2023-12-14T03:06:59;16.20;;;11.80;;
6215;SDS011;3141;49.234;9.326;2023-12-14T03:07:44;18.77;;;11.88;;
6215;SDS011;3141;49.234;9.326;2023-12-14T03:08:26;17.93;;;11.93;;
6215;SDS011;3141;49.234;9.326;2023-12-14T03:09:08;16.67;;;12.03;;
6215;SDS011;3141;49.234;9.326;2023-12-14T03:09:51;15.47;;;11.87;;
6215;SDS011;3141;49.234;9.326;2023-12-14T03:10:33;19.93;;;12.00;;
6215;SDS011;3141;49.234;9.326;2023-12-14T03:11:21;20.13;;;13.00;;
6215;SDS011;3141;49.234;9.326;2023-12-14T03:12:05;17.15;;;10.88;;
6215;SDS011;3141;49.234;9.326;2023-12-14T03:12:48;20.30;;;11.60;;
6215;SDS011;3141;49.234;9.326;2023-12-14T03:13:30;20.23;;;12.00;;
6215;SDS011;3141;49.234;9.326;2023-12-14T03:14:12;19.17;;;12.10;;
6215;SDS011;3141;49.234;9.326;2023-12-14T03:14:54;19.27;;;12.50;;
6215;SDS011;3141;49.234;9.326;2023-12-14T03:15:37;17.17;;;12.20;;
6215;SDS011;3141;49.234;9.326;2023-12-14T03:16:20;17.90;;;11.80;;
6215;SDS011;3141;49.234;9.326;2023-12-14T03:17:03;16.80;;;11.18;;
6215;SDS011;3141;49.234;9.326;2023-12-14T03:17:45;18.57;;;12.03;;
6215;SDS011;3141;49.234;9.326;2023-12-14T03:18:27;19.40;;;12.83;;
6215;SDS011;3141;49.234;9.326;2023-12-14T03:19:10;17.13;;;11.67;;
6215;SDS011;3141;49.234;9.326;2023-12-14T03:19:52;18.83;;;11.77;;
6215;SDS011;3141;49.234;9.326;2023-12-14T03:20:34;19.30;;;12.10;;
6215;SDS011;3141;49.234;9.326;2023-12-14T03:21:17;19.17;;;12.00;;
6215;SDS011;3141;49.234;9.326;2023-12-14T03:21:59;17.27;;;11.17;;
6215;SDS011;3141;49.234;9.326;2023-12-14T03:22:41;17.27;;;12.33;;
6215;SDS011;3141;49.234;9.326;2023-12-14T03:23:23;17.40;;;11.23;;
6215;SDS011;3141;49.234;9.326;2023-12-14T03:24:06;21.13;;;14.47;;
6215;SDS011;3141;49.234;9.326;2023-12-14T03:24:48;16.40;;;11.67;;
6215;SDS011;3141;49.234;9.326;2023-12-14T03:25:30;18.70;;;12.50;;
6215;SDS011;3141;49.234;9.326;2023-12-14T03:26:13;17.77;;;11.77;;
6215;SDS011;3141;49.234;9.326;2023-12-14T03:26:55;21.37;;;12.90;;
6215;SDS011;3141;49.234;9.326;2023-12-14T03:27:37;19.93;;;12.40;;
6215;SDS011;3141;49.234;9.326;2023-12-14T03:28:20;18.57;;;12.67;;
6215;SDS011;3141;49.234;9.326;2023-12-14T03:29:02;17.23;;;12.30;;
6215;SDS011;3141;49.234;9.326;2023-12-14T03:29:44;19.80;;;12.17;;
6215;SDS011;3141;49.234;9.326;2023-12-14T03:30:26;18.67;;;11.83;;
6215;SDS011;3141;49.234;9.326;2023-12-14T03:31:10;18.93;;;13.03;;
6215;SDS011;3141;49.234;9.326;2023-12-14T03:31:57;25.33;;;13.77;;
6215;SDS011;3141;49.234;9.326;2023-12-14T03:32:39;20.03;;;13.00;;
6215;SDS011;3141;49.234;9.326;2023-12-14T03:33:21;18.37;;;12.33;;
6215;SDS011;3141;49.234;9.326;2023-12-14T03:34:04;21.07;;;12.57;;
6215;SDS011;3141;49.234;9.326;2023-12-14T03:34:46;18.03;;;12.50;;
6215;SDS011;3141;49.234;9.326;2023-12-14T03:35:28;20.07;;;12.73;;
6215;SDS011;3141;49.234;9.326;2023-12-14T03:36:11;20.73;;;12.77;;
6215;SDS011;3141;49.234;9.326;2023-12-14T03:36:53;21.87;;;12.80;;
6215;SDS011;3141;49.234;9.326;2023-12-14T03:37:35;19.47;;;13.13;;
6215;SDS011;3141;49.234;9.326;2023-12-14T03:38:18;17.73;;;12.83;;
6215;SDS011;3141;49.234;9.326;2023-12-14T03:39:00;22.53;;;13.40;;
6215;SDS011;3141;49.234;9.326;2023-12-14T03:39:42;19.17;;;12.50;;
6215;SDS011;3141;49.234;9.326;2023-12-14T03:40:25;27.43;;;13.00;;
6215;SDS011;3141;49.234;9.326;2023-12-14T03:41:07;18.87;;;12.83;;
6215;SDS011;3141;49.234;9.326;2023-12-14T03:41:49;21.43;;;13.37;;
6215;SDS011;3141;49.234;9.326;2023-12-14T03:42:32;17.83;;;12.83;;
6215;SDS011;3141;49.234;9.326;2023-12-14T03:43:14;18.00;;;13.37;;
6215;SDS011;3141;49.234;9.326;2023-12-14T03:43:56;18.33;;;13.03;;
6215;SDS011;3141;49.234;9.326;2023-12-14T03:44:38;21.27;;;13.40;;
6215;SDS011;3141;49.234;9.326;2023-12-14T03:45:21;19.00;;;13.80;;
6215;SDS011;3141;49.234;9.326;2023-12-14T03:46:03;17.70;;;12.80;;
6215;SDS011;3141;49.234;9.326;2023-12-14T03:46:48;18.35;;;12.65;;
6215;SDS011;3141;49.234;9.326;2023-12-14T03:47:30;25.93;;;13.63;;
6215;SDS011;3141;49.234;9.326;2023-12-14T03:48:12;21.17;;;13.23;;
6215;SDS011;3141;49.234;9.326;2023-12-14T03:48:55;19.67;;;12.37;;
6215;SDS011;3141;49.234;9.326;2023-12-14T03:49:37;21.87;;;14.57;;
6215;SDS011;3141;49.234;9.326;2023-12-14T03:50:20;19.67;;;12.90;;
6215;SDS011;3141;49.234;9.326;2023-12-14T03:51:03;18.57;;;11.10;;
6215;SDS011;3141;49.234;9.326;2023-12-14T03:51:46;19.92;;;14.30;;
6215;SDS011;3141;49.234;9.326;2023-12-14T03:52:28;23.43;;;13.77;;
6215;SDS011;3141;49.234;9.326;2023-12-14T03:53:13;20.30;;;13.88;;
6215;SDS011;3141;49.234;9.326;2023-12-14T03:53:55;19.53;;;12.67;;
6215;SDS011;3141;49.234;9.326;2023-12-14T03:54:37;24.67;;;13.80;;
6215;SDS011;3141;49.234;9.326;2023-12-14T03:55:20;21.40;;;13.37;;
6215;SDS011;3141;49.234;9.326;2023-12-14T03:56:02;20.97;;;13.03;;
6215;SDS011;3141;49.234;9.326;2023-12-14T03:56:45;21.83;;;13.48;;
6215;SDS011;3141;49.234;9.326;2023-12-14T03:57:27;25.20;;;13.90;;
6215;SDS011;3141;49.234;9.326;2023-12-14T03:58:10;19.70;;;13.60;;
6215;SDS011;3141;49.234;9.326;2023-12-14T03:58:52;19.93;;;13.93;;
6215;SDS011;3141;49.234;9.326;2023-12-14T03:59:38;18.77;;;13.47;;
6215;SDS011;3141;49.234;9.326;2023-12-14T04:00:21;20.77;;;13.77;;
6215;SDS011;3141;49.234;9.326;2023-12-14T04:01:03;25.17;;;14.63;;
6215;SDS011;3141;49.234;9.326;2023-12-14T04:01:46;20.63;;;13.97;;
6215;SDS011;3141;49.234;9.326;2023-12-14T04:02:28;23.20;;;13.93;;
6215;SDS011;3141;49.234;9.326;2023-12-14T04:03:10;24.10;;;14.13;;
6215;SDS011;3141;49.234;9.326;2023-12-14T04:03:53;22.00;;;13.97;;
6215;SDS011;3141;49.234;9.326;2023-12-14T04:04:35;23.37;;;14.57;;
6215;SDS011;3141;49.234;9.326;2023-12-14T04:05:17;20.77;;;14.93;;
6215;SDS011;3141;49.234;9.326;2023-12-14T04:06:00;24.47;;;13.33;;
6215;SDS011;3141;49.234;9.326;2023-12-14T04:06:42;22.43;;;14.00;;
6215;SDS011;3141;49.234;9.326;2023-12-14T04:07:24;19.07;;;13.40;;
6215;SDS011;3141;49.234;9.326;2023-12-14T04:08:07;20.53;;;13.87;;
6215;SDS011;3141;49.234;9.326;2023-12-14T04:08:49;21.90;;;14.33;;
6215;SDS011;3141;49.234;9.326;2023-12-14T04:09:31;24.87;;;14.60;;
6215;SDS011;3141;49.234;9.326;2023-12-14T04:10:14;20.93;;;14.33;;
6215;SDS011;3141;49.234;9.326;2023-12-14T04:10:56;20.73;;;14.17;;
6215;SDS011;3141;49.234;9.326;2023-12-14T04:11:38;24.67;;;14.47;;
6215;SDS011;3141;49.234;9.326;2023-12-14T04:12:20;17.60;;;13.70;;
6215;SDS011;3141;49.234;9.326;2023-12-14T04:13:03;25.50;;;14.17;;
6215;SDS011;3141;49.234;9.326;2023-12-14T04:13:45;22.43;;;14.33;;
6215;SDS011;3141;49.234;9.326;2023-12-14T04:14:28;24.00;;;14.40;;
6215;SDS011;3141;49.234;9.326;2023-12-14T04:15:10;23.90;;;14.13;;
6215;SDS011;3141;49.234;9.326;2023-12-14T04:15:52;22.23;;;14.27;;
6215;SDS011;3141;49.234;9.326;2023-12-14T04:16:34;24.83;;;14.83;;
6215;SDS011;3141;49.234;9.326;2023-12-14T04:17:17;26.20;;;13.93;;
6215;SDS011;3141;49.234;9.326;2023-12-14T04:17:59;22.37;;;13.90;;
6215;SDS011;3141;49.234;9.326;2023-12-14T04:18:41;24.43;;;15.37;;